CSAV Traiguen — D5EP4 — position and weather

sailwx.info

Track history (hours):
 
Tides and Currents Weather Stations Pressure Air Temp Water Temp Dewpoint Dewpoint Depression Visibility Wind Speed Wind Dir Waves Ship Positions

CSAV Traiguen

Last reported at 2018-Jan-10 22:23 UTC. Time now 2018-Jan-21 20:54 UTC.
Position S 24°49' W 046°55'.
Warning: this ship's position is 10 days out of date.

Length 300 m; draft 8.6 m.

Type: Ship (hazmat cat D). MMSI: 636016125.

Date/timePositionNaut miles runAvg speedWind from/ knotsBaromVisibWave heightAir tempDewpointWater temp
2018-Jan-10 22:23S 24°49' W 046°55'511.9
2018-Jan-10 21:58S 24°46' W 046°51'511.8
2018-Jan-10 21:31S 24°42' W 046°46'611.7
2018-Jan-10 20:58S 24°38' W 046°41'511.7
2018-Jan-10 20:31S 24°35' W 046°37'611.7
2018-Jan-10 20:00S 24°31' W 046°32'611.4
2018-Jan-10 19:31S 24°26' W 046°28'611.7
2018-Jan-10 19:00S 24°21' W 046°26'611.5
2018-Jan-10 18:30S 24°15' W 046°23'611.1
2018-Jan-10 17:59S 24°10' W 046°22'511.1
2018-Jan-10 17:31S 24°04' W 046°22'510.0
2018-Jan-10 17:00S 23°60' W 046°20'2 5.1
2018-Jan-10 16:30S 23°58' W 046°18'4 7.0
2018-Jan-10 15:59S 23°55' W 046°21'0 0.0
2018-Jan-10 02:43S 23°55' W 046°21'3 5.9
2018-Jan-10 02:10S 23°57' W 046°18'1 8.5
2018-Jan-10 02:00S 23°58' W 046°17'4 7.1
2018-Jan-10 01:30S 24°01' W 046°20'5 9.7
2018-Jan-10 01:01S 24°05' W 046°22'510.5
2018-Jan-10 00:30S 24°11' W 046°22'510.2
2018-Jan-10 00:00S 24°13' W 046°17'611.7
2018-Jan-09 23:30S 24°12' W 046°11'611.4
2018-Jan-09 23:01S 24°11' W 046°04'713.3
2018-Jan-09 22:30S 24°13' W 045°57'  
Track history (hours):
 
Tides and Currents Weather Stations Pressure Air Temp Water Temp Dewpoint Dewpoint Depression Visibility Wind Speed Wind Dir Waves Ship Positions

CSAV Traiguen

Last reported at 2018-Jan-10 22:23 UTC. Time now 2018-Jan-21 20:54 UTC.
Position S 24°49' W 046°55'.
Warning: this ship's position is 10 days out of date.

Length 300 m; draft 8.6 m.

Type: Ship (hazmat cat D). MMSI: 636016125.

Date/timePositionNaut miles runAvg speedWind from/ knotsBaromVisibWave heightAir tempDewpointWater temp
2018-Jan-10 22:23S 24°49' W 046°55'511.9
2018-Jan-10 21:58S 24°46' W 046°51'511.8
2018-Jan-10 21:31S 24°42' W 046°46'611.7
2018-Jan-10 20:58S 24°38' W 046°41'511.7
2018-Jan-10 20:31S 24°35' W 046°37'611.7
2018-Jan-10 20:00S 24°31' W 046°32'611.4
2018-Jan-10 19:31S 24°26' W 046°28'611.7
2018-Jan-10 19:00S 24°21' W 046°26'611.5
2018-Jan-10 18:30S 24°15' W 046°23'611.1
2018-Jan-10 17:59S 24°10' W 046°22'511.1
2018-Jan-10 17:31S 24°04' W 046°22'510.0
2018-Jan-10 17:00S 23°60' W 046°20'2 5.1
2018-Jan-10 16:30S 23°58' W 046°18'4 7.0
2018-Jan-10 15:59S 23°55' W 046°21'0 0.0
2018-Jan-10 02:43S 23°55' W 046°21'3 5.9
2018-Jan-10 02:10S 23°57' W 046°18'1 8.5
2018-Jan-10 02:00S 23°58' W 046°17'4 7.1
2018-Jan-10 01:30S 24°01' W 046°20'5 9.7
2018-Jan-10 01:01S 24°05' W 046°22'510.5
2018-Jan-10 00:30S 24°11' W 046°22'510.2
2018-Jan-10 00:00S 24°13' W 046°17'611.7
2018-Jan-09 23:30S 24°12' W 046°11'611.4
2018-Jan-09 23:01S 24°11' W 046°04'713.3
2018-Jan-09 22:30S 24°13' W 045°57'  

Dump ship's entire track history